Time;durP1;ratioP1;P1;durP2;ratioP2;P2;SDS_P1;SDS_P2;PMS_P1;PMS_P2;Temp;Humidity;BMP_temperature;BMP_pressure;BME280_temperature;BME280_humidity;BME280_pressure;Samples;Min_cycle;Max_cycle;Signal;HPM_P1;HPM_P2
2022/05/14 00:00:53;;;;;;;0.60;0.30;;;;;;;23.50;59.21;100422.66;4993158;28;20076;-62
2022/05/14 00:03:19;;;;;;;0.20;0.20;;;;;;;23.50;59.56;100423.50;4992966;28;20034;-63
2022/05/14 00:05:44;;;;;;;0.73;0.20;;;;;;;23.51;58.86;100408.72;4992803;28;20034;-62
2022/05/14 00:08:11;;;;;;;0.30;0.10;;;;;;;23.49;58.59;100413.56;4993114;28;20022;-63
2022/05/14 00:13:03;;;;;;;0.73;0.20;;;;;;;23.50;59.60;100407.03;4993680;28;20023;-62
2022/05/14 00:13:23;;;;;;;0.38;0.20;;;;;;;23.49;58.63;100416.31;4992771;28;20127;-63
2022/05/14 00:15:48;;;;;;;0.32;0.22;;;;;;;23.46;58.76;100405.78;4992698;28;20089;-63
2022/05/14 00:18:13;;;;;;;0.22;0.10;;;;;;;23.48;59.09;100406.41;4992873;28;20030;-64
2022/05/14 00:20:39;;;;;;;1.13;0.15;;;;;;;23.46;58.76;100400.28;4992862;28;20055;-63
2022/05/14 00:23:06;;;;;;;0.30;0.20;;;;;;;23.46;58.95;100397.56;4992890;28;20034;-62
2022/05/14 00:25:32;;;;;;;0.32;0.13;;;;;;;23.46;59.14;100405.78;4993093;28;20061;-63
2022/05/14 00:27:58;;;;;;;0.30;0.20;;;;;;;23.45;58.73;100395.03;4992569;28;20125;-62
2022/05/14 00:30:26;;;;;;;0.68;0.20;;;;;;;23.45;58.96;100398.59;4992749;28;20443;-62
2022/05/14 00:32:52;;;;;;;0.25;0.25;;;;;;;23.45;59.49;100395.88;4992869;28;20023;-63
2022/05/14 00:35:17;;;;;;;0.10;0.10;;;;;;;23.48;58.67;100400.06;4993263;28;20025;-63
2022/05/14 00:37:43;;;;;;;0.43;0.10;;;;;;;23.45;58.93;100393.13;4992787;28;20084;-62
2022/05/14 00:40:13;;;;;;;0.17;0.17;;;;;;;23.43;58.99;100392.50;4992818;28;20076;-62
2022/05/14 00:42:38;;;;;;;0.22;0.20;;;;;;;23.44;58.87;100401.56;4992726;28;20026;-63
2022/05/14 00:45:06;;;;;;;0.30;0.10;;;;;;;23.44;58.63;100391.44;4992830;28;20093;-62
2022/05/14 00:47:36;;;;;;;0.63;0.22;;;;;;;23.45;59.13;100389.53;4992613;28;20134;-62
2022/05/14 00:50:06;;;;;;;0.90;0.20;;;;;;;23.44;59.12;100383.22;4996459;28;20026;-62
2022/05/14 00:52:32;;;;;;;0.88;0.20;;;;;;;23.44;59.15;100391.44;4979127;28;20394;-62
2022/05/14 00:55:01;;;;;;;0.60;0.20;;;;;;;23.42;58.52;100380.69;4996526;28;20041;-63
2022/05/14 00:57:31;;;;;;;0.55;0.28;;;;;;;23.43;58.43;100384.28;4996320;28;20034;-62
2022/05/14 01:00:00;;;;;;;1.05;0.30;;;;;;;23.44;58.43;100374.97;4996356;28;20041;-62
2022/05/14 01:02:26;;;;;;;0.35;0.30;;;;;;;23.44;58.59;100374.97;4996209;28;20109;-62
2022/05/14 01:04:51;;;;;;;0.55;0.28;;;;;;;23.42;58.89;100374.38;4996332;28;20169;-62
2022/05/14 01:07:20;;;;;;;0.43;0.20;;;;;;;23.46;59.06;100378.34;4996467;28;20018;-63
2022/05/14 01:09:55;;;;;;;0.38;0.25;;;;;;;23.41;59.22;100372.69;4995975;28;20038;-62
2022/05/14 01:12:23;;;;;;;0.30;0.20;;;;;;;23.41;59.16;100367.19;4996035;28;20029;-63
2022/05/14 01:14:48;;;;;;;1.58;0.25;;;;;;;23.42;58.53;100375.19;4996137;28;20027;-63
2022/05/14 01:17:14;;;;;;;0.47;0.30;;;;;;;23.41;58.94;100369.94;4995997;28;20041;-62
2022/05/14 01:19:39;;;;;;;0.50;0.22;;;;;;;23.40;59.41;100373.75;4995795;28;20036;-63
2022/05/14 01:22:28;;;;;;;0.93;0.38;;;;;;;23.40;59.10;100365.50;4979153;28;20030;-62
2022/05/14 01:27:52;;;;;;;0.55;0.32;;;;;;;23.42;59.25;100360.66;4996894;28;20129;-62
2022/05/14 01:30:18;;;;;;;0.40;0.32;;;;;;;23.40;59.30;100354.53;4995714;28;20109;-63
2022/05/14 01:32:47;;;;;;;0.57;0.28;;;;;;;23.38;59.21;100359.41;4995895;28;20046;-62
2022/05/14 01:35:16;;;;;;;1.00;0.30;;;;;;;23.38;59.20;100359.41;4995738;28;20033;-63
2022/05/14 01:37:43;;;;;;;0.70;0.47;;;;;;;23.40;59.56;100365.50;4995498;28;20033;-62
2022/05/14 01:40:08;;;;;;;0.63;0.40;;;;;;;23.41;59.45;100353.47;4996264;28;20030;-62
2022/05/14 01:42:33;;;;;;;0.45;0.20;;;;;;;23.40;59.35;100351.78;4995411;28;20030;-63
2022/05/14 01:44:59;;;;;;;0.10;0.10;;;;;;;23.40;59.13;100346.31;4995600;28;20018;-63
2022/05/14 01:47:24;;;;;;;0.35;0.20;;;;;;;23.39;59.81;100344.63;4995260;28;20038;-63
2022/05/14 01:49:49;;;;;;;0.45;0.20;;;;;;;23.38;59.62;100345.69;4995324;28;20117;-62
2022/05/14 01:52:15;;;;;;;0.70;0.25;;;;;;;23.38;59.58;100342.94;4995920;28;20457;-63
2022/05/14 01:54:40;;;;;;;0.68;0.30;;;;;;;23.37;59.89;100346.75;4995363;28;20105;-62
2022/05/14 01:57:06;;;;;;;0.20;0.10;;;;;;;23.38;59.81;100348.44;4995178;28;20113;-63
2022/05/14 01:59:31;;;;;;;1.80;0.22;;;;;;;23.36;60.06;100339.56;4994573;28;20027;-63
2022/05/14 02:01:56;;;;;;;0.68;0.20;;;;;;;23.36;60.03;100340.41;4995121;28;20362;-62
2022/05/14 02:04:21;;;;;;;0.40;0.20;;;;;;;23.34;59.42;100334.28;4995046;28;20026;-63
2022/05/14 02:06:47;;;;;;;0.82;0.20;;;;;;;23.36;59.54;100337.69;4996203;28;20049;-63
2022/05/14 02:09:14;;;;;;;0.25;0.20;;;;;;;23.36;60.30;100334.94;4995132;28;20038;-63
2022/05/14 02:11:41;;;;;;;1.05;0.40;;;;;;;23.37;59.72;100333.03;4994859;28;20485;-62
2022/05/14 02:14:07;;;;;;;0.30;0.20;;;;;;;23.34;59.76;100330.69;4995038;28;20042;-62
2022/05/14 02:16:33;;;;;;;0.30;0.20;;;;;;;23.37;59.94;100330.28;4977267;28;20125;-62
2022/05/14 02:18:59;;;;;;;0.45;0.30;;;;;;;23.35;60.22;100335.16;4995234;28;20117;-63
2022/05/14 02:21:24;;;;;;;0.43;0.20;;;;;;;23.36;59.77;100323.13;4994787;28;20376;-62
2022/05/14 02:23:51;;;;;;;1.13;0.40;;;;;;;23.38;60.06;100321.00;4977395;28;20038;-63
2022/05/14 02:26:17;;;;;;;0.20;0.10;;;;;;;23.37;59.15;100319.31;4994775;28;20026;-63
2022/05/14 02:28:42;;;;;;;0.20;0.20;;;;;;;23.34;59.61;100319.72;4994629;28;20426;-62
2022/05/14 02:31:08;;;;;;;0.77;0.40;;;;;;;23.35;59.59;100321.44;4994737;28;20034;-62
2022/05/14 02:33:36;;;;;;;0.60;0.20;;;;;;;23.37;59.49;100319.31;4994758;28;20105;-62
2022/05/14 02:36:02;;;;;;;0.50;0.15;;;;;;;23.35;60.31;100318.69;4994612;28;20022;-63
2022/05/14 02:38:30;;;;;;;1.65;0.43;;;;;;;23.35;60.09;100314.06;4994312;28;20049;-62
2022/05/14 02:40:57;;;;;;;0.22;0.10;;;;;;;23.35;60.01;100315.94;4994764;28;20053;-62
2022/05/14 02:43:22;;;;;;;0.73;0.40;;;;;;;23.36;59.73;100314.91;4994364;28;20026;-63
2022/05/14 02:45:47;;;;;;;0.50;0.30;;;;;;;23.34;60.69;100320.56;4994557;28;20480;-63
2022/05/14 02:48:12;;;;;;;0.45;0.30;;;;;;;23.35;60.30;100318.69;4995213;28;20022;-63
2022/05/14 02:50:38;;;;;;;0.60;0.22;;;;;;;23.34;59.76;100316.97;4994235;28;20026;-62
2022/05/14 02:53:04;;;;;;;1.05;0.13;;;;;;;23.34;60.14;100325.22;4994371;28;20030;-63
2022/05/14 02:55:30;;;;;;;0.77;0.20;;;;;;;23.34;60.03;100312.34;4994095;28;20105;-62
2022/05/14 02:57:55;;;;;;;0.25;0.20;;;;;;;23.34;60.28;100314.25;4994150;28;20466;-63
2022/05/14 03:00:21;;;;;;;1.80;0.20;;;;;;;23.35;60.29;100310.47;4993934;28;20030;-62
2022/05/14 03:02:47;;;;;;;0.10;0.10;;;;;;;23.34;59.89;100311.50;4994070;28;20030;-62
2022/05/14 03:05:14;;;;;;;0.52;0.50;;;;;;;23.33;60.46;100315.31;4976577;28;20514;-63
2022/05/14 03:07:40;;;;;;;0.47;0.30;;;;;;;23.33;59.90;100309.81;4993757;28;20026;-63
2022/05/14 03:10:06;;;;;;;0.57;0.55;;;;;;;23.33;60.23;100312.56;4994489;28;20391;-63
2022/05/14 03:12:31;;;;;;;0.35;0.10;;;;;;;23.34;59.84;100308.75;4993589;28;20030;-62
2022/05/14 03:14:57;;;;;;;0.30;0.22;;;;;;;23.34;60.03;100308.75;4993923;28;20031;-63
2022/05/14 03:17:22;;;;;;;0.10;0.10;;;;;;;23.32;60.53;100308.97;4993631;28;20454;-64
2022/05/14 03:19:47;;;;;;;0.73;0.30;;;;;;;23.33;60.36;100307.91;4993648;28;20070;-62
2022/05/14 03:22:13;;;;;;;0.60;0.32;;;;;;;23.32;60.77;100305.38;4993747;28;20029;-63
2022/05/14 03:24:38;;;;;;;0.40;0.40;;;;;;;23.31;60.84;100309.19;4993743;28;20030;-62
2022/05/14 03:27:05;;;;;;;0.30;0.20;;;;;;;23.34;60.82;100314.25;4994396;28;20054;-62
2022/05/14 03:29:31;;;;;;;1.15;0.32;;;;;;;23.33;60.16;100307.91;4993294;28;20037;-63
2022/05/14 03:31:57;;;;;;;0.68;0.50;;;;;;;23.33;60.37;100312.56;4993515;28;20038;-63
2022/05/14 03:34:23;;;;;;;0.45;0.20;;;;;;;23.31;60.37;100309.19;4993314;28;20030;-63
2022/05/14 03:36:48;;;;;;;0.25;0.20;;;;;;;23.31;60.31;100312.78;4993457;28;20026;-62
2022/05/14 03:39:14;;;;;;;0.28;0.20;;;;;;;23.32;60.77;100316.38;4993390;28;20065;-63
2022/05/14 03:41:39;;;;;;;1.15;0.20;;;;;;;23.32;60.56;100321.84;4993240;28;20022;-63
2022/05/14 03:44:05;;;;;;;1.10;0.30;;;;;;;23.31;61.26;100320.16;4976157;28;20034;-62
2022/05/14 03:46:30;;;;;;;0.38;0.38;;;;;;;23.31;60.84;100320.16;4993101;28;20027;-62
2022/05/14 03:48:55;;;;;;;0.20;0.15;;;;;;;23.31;60.48;100317.41;4993326;28;20104;-63
2022/05/14 03:51:21;;;;;;;0.20;0.10;;;;;;;23.30;60.67;100313.84;4993202;28;20422;-63
2022/05/14 03:53:47;;;;;;;0.70;0.20;;;;;;;23.30;61.15;100319.31;4993011;28;20026;-63
2022/05/14 03:56:13;;;;;;;0.57;0.15;;;;;;;23.31;60.74;100315.53;4993295;28;20474;-62
2022/05/14 03:58:38;;;;;;;0.22;0.22;;;;;;;23.30;60.70;100318.47;4993107;28;20072;-63
2022/05/14 04:01:05;;;;;;;0.90;0.28;;;;;;;23.30;61.13;100313.00;4975716;28;20034;-63
2022/05/14 04:03:32;;;;;;;0.55;0.28;;;;;;;23.44;60.69;100313.78;4993358;28;20026;-63
2022/05/14 04:05:59;;;;;;;0.20;0.20;;;;;;;23.54;60.49;100320.50;4992957;28;20034;-63
2022/05/14 04:08:25;;;;;;;0.32;0.20;;;;;;;23.60;60.13;100313.31;4992919;28;20053;-63
2022/05/14 04:10:50;;;;;;;0.22;0.20;;;;;;;23.66;60.36;100318.78;4992878;28;20053;-63
2022/05/14 04:13:16;;;;;;;0.30;0.20;;;;;;;23.69;60.53;100318.34;4993305;28;20022;-63
2022/05/14 04:15:41;;;;;;;0.52;0.17;;;;;;;23.71;60.09;100307.16;4992817;28;20113;-63
2022/05/14 04:18:06;;;;;;;0.17;0.10;;;;;;;23.75;59.73;100310.31;4992928;28;20030;-64
2022/05/14 04:20:31;;;;;;;0.10;0.10;;;;;;;23.77;60.51;100302.69;4992870;28;20304;-63
2022/05/14 04:22:57;;;;;;;0.85;0.30;;;;;;;23.80;60.10;100304.97;4994592;28;20397;-63
2022/05/14 04:25:24;;;;;;;0.50;0.32;;;;;;;23.84;60.33;100319.94;4999276;28;20054;-64
2022/05/14 04:27:49;;;;;;;0.20;0.10;;;;;;;23.82;60.98;100311.94;4999515;28;20502;-62
2022/05/14 04:30:16;;;;;;;0.40;0.20;;;;;;;23.84;60.87;100314.44;4999589;28;20045;-63
2022/05/14 04:32:42;;;;;;;0.30;0.10;;;;;;;23.86;60.54;100315.09;4999368;28;20026;-63
2022/05/14 04:35:08;;;;;;;0.20;0.20;;;;;;;23.87;60.71;100311.28;4999278;28;20536;-62
2022/05/14 04:37:35;;;;;;;0.20;0.20;;;;;;;23.87;60.71;100316.78;4998943;28;20498;-63
2022/05/14 04:40:01;;;;;;;0.57;0.10;;;;;;;23.90;60.78;100321.81;4999223;28;20519;-62
2022/05/14 04:42:26;;;;;;;1.05;0.20;;;;;;;23.89;61.28;100320.16;4999424;28;20117;-63
2022/05/14 04:44:51;;;;;;;0.20;0.10;;;;;;;23.91;61.23;100326.25;5000072;28;20022;-62
2022/05/14 04:47:17;;;;;;;0.70;0.25;;;;;;;23.91;61.65;100327.09;4983714;28;20041;-62
2022/05/14 04:49:47;;;;;;;0.63;0.22;;;;;;;23.93;61.18;100324.13;4997859;28;20034;-63
2022/05/14 04:52:12;;;;;;;0.73;0.20;;;;;;;23.93;61.93;100324.13;4999242;28;20501;-63
2022/05/14 04:54:38;;;;;;;0.40;0.20;;;;;;;23.94;61.34;100331.28;4999074;28;20026;-64
2022/05/14 04:57:05;;;;;;;0.20;0.20;;;;;;;23.94;62.05;100325.81;4999155;28;20033;-63
2022/05/14 04:59:30;;;;;;;0.30;0.20;;;;;;;23.95;61.05;100333.81;4998854;28;20073;-63
2022/05/14 05:04:41;;;;;;;0.13;0.10;;;;;;;23.97;61.87;100330.84;4999051;28;20040;-62
2022/05/14 05:07:06;;;;;;;0.20;0.20;;;;;;;23.97;61.52;100336.34;4999062;28;20436;-63
2022/05/14 05:09:32;;;;;;;0.90;0.25;;;;;;;23.96;61.56;100332.75;4999361;28;20026;-63
2022/05/14 05:11:57;;;;;;;0.43;0.20;;;;;;;23.99;61.78;100331.47;4999136;28;20386;-62
2022/05/14 05:14:23;;;;;;;0.43;0.10;;;;;;;24.00;62.08;100334.00;4998772;28;20018;-63
2022/05/14 05:16:48;;;;;;;0.30;0.30;;;;;;;24.00;62.14;100330.41;4998876;28;20061;-62
2022/05/14 05:19:13;;;;;;;0.20;0.15;;;;;;;24.00;62.56;100330.41;4998911;28;20401;-63
2022/05/14 05:21:39;;;;;;;0.50;0.20;;;;;;;24.01;61.85;100332.09;4998588;28;20026;-63
2022/05/14 05:24:05;;;;;;;0.77;0.30;;;;;;;24.02;62.26;100328.31;4998868;28;20196;-63
2022/05/14 05:26:32;;;;;;;0.43;0.30;;;;;;;24.02;62.59;100328.31;5000285;28;20049;-62
2022/05/14 05:28:57;;;;;;;0.80;0.43;;;;;;;24.03;62.61;100332.72;4999333;28;20066;-63
2022/05/14 05:31:22;;;;;;;0.38;0.20;;;;;;;24.03;62.53;100335.47;4998624;28;20360;-63
2022/05/14 05:33:48;;;;;;;0.88;0.30;;;;;;;24.05;62.77;100335.25;4998505;28;20040;-63
2022/05/14 05:36:13;;;;;;;0.30;0.22;;;;;;;24.04;62.51;100337.16;4994513;28;20069;-63
2022/05/14 05:38:38;;;;;;;0.22;0.20;;;;;;;24.05;62.84;100333.34;4995525;28;20030;-63
2022/05/14 05:41:03;;;;;;;0.52;0.17;;;;;;;24.04;62.59;100331.66;4995764;28;20068;-64
2022/05/14 05:43:29;;;;;;;0.28;0.28;;;;;;;24.06;62.63;100329.53;4995437;28;20474;-63
2022/05/14 05:45:54;;;;;;;0.55;0.40;;;;;;;24.07;62.34;100331.22;4995458;28;20038;-63
2022/05/14 05:48:19;;;;;;;0.30;0.20;;;;;;;24.04;62.93;100331.66;4995329;28;20018;-63
2022/05/14 05:50:48;;;;;;;0.65;0.20;;;;;;;24.08;62.85;100343.03;4995481;28;20037;-63
2022/05/14 05:53:14;;;;;;;0.40;0.10;;;;;;;24.08;63.29;100338.41;4995456;28;20484;-63
2022/05/14 05:58:23;;;;;;;0.25;0.25;;;;;;;24.08;62.45;100348.53;4995136;28;20493;-63
2022/05/14 06:00:48;;;;;;;0.40;0.30;;;;;;;24.08;62.91;100349.38;4995338;28;20030;-62
2022/05/14 06:03:14;;;;;;;0.15;0.10;;;;;;;24.09;63.22;100345.56;4995235;28;20026;-63
2022/05/14 06:05:39;;;;;;;2.13;0.10;;;;;;;24.08;62.97;100346.63;4995012;28;20109;-62
2022/05/14 06:08:10;;;;;;;0.50;0.20;;;;;;;24.06;63.42;100351.50;4995187;28;20493;-63
2022/05/14 06:10:35;;;;;;;0.35;0.20;;;;;;;24.10;63.64;100350.00;4994997;28;20135;-63
2022/05/14 06:13:01;;;;;;;0.65;0.22;;;;;;;24.10;63.16;100347.25;4995892;28;20479;-63
2022/05/14 06:15:27;;;;;;;0.60;0.30;;;;;;;24.09;62.81;100356.56;4995670;28;20029;-62
2022/05/14 06:17:52;;;;;;;1.02;0.20;;;;;;;24.09;63.17;100356.56;4994765;28;20037;-63
2022/05/14 06:20:18;;;;;;;0.25;0.10;;;;;;;24.10;62.99;100352.75;4994823;28;20030;-63
2022/05/14 06:22:43;;;;;;;1.40;0.22;;;;;;;24.13;63.00;100348.72;4994870;28;20104;-64
2022/05/14 06:25:09;;;;;;;1.45;0.38;;;;;;;;;;4995555;28;20018;-62
2022/05/14 06:27:35;;;;;;;0.20;0.10;;;;;;;24.11;63.12;100342.59;4994717;28;20035;-63
2022/05/14 06:30:00;;;;;;;0.52;0.20;;;;;;;24.13;62.96;100351.44;4994753;28;20113;-62
2022/05/14 06:32:25;;;;;;;1.50;0.57;;;;;;;24.11;62.87;100348.09;4994571;28;20023;-63
2022/05/14 06:34:51;;;;;;;0.57;0.22;;;;;;;24.14;63.33;100358.63;4977199;28;20026;-63
2022/05/14 06:37:17;;;;;;;1.65;0.30;;;;;;;24.13;63.50;100356.94;4994720;28;20030;-63
2022/05/14 06:39:43;;;;;;;0.57;0.20;;;;;;;24.15;62.96;100366.63;4994693;28;20033;-63
2022/05/14 06:42:10;;;;;;;0.77;0.43;;;;;;;24.13;63.40;100352.28;4995267;28;20027;-63
2022/05/14 06:44:36;;;;;;;0.20;0.10;;;;;;;24.17;63.59;100359.03;4994388;28;20030;-63
2022/05/14 06:47:01;;;;;;;0.10;0.10;;;;;;;24.17;64.03;100366.41;4994071;28;20356;-63
2022/05/14 06:49:27;;;;;;;0.20;0.10;;;;;;;24.15;64.01;100366.63;4994200;28;20105;-63
2022/05/14 06:51:54;;;;;;;0.52;0.20;;;;;;;24.18;63.88;100370.84;4994232;28;20031;-62
2022/05/14 06:54:20;;;;;;;0.47;0.20;;;;;;;24.18;64.29;100371.69;4994189;28;20031;-63
2022/05/14 06:56:47;;;;;;;0.75;0.20;;;;;;;24.18;64.69;100368.94;4995176;28;20038;-63
2022/05/14 06:59:14;;;;;;;0.47;0.25;;;;;;;24.18;64.07;100377.19;4994190;28;20056;-64
2022/05/14 07:01:42;;;;;;;1.10;0.40;;;;;;;24.19;64.49;100372.56;4993915;28;20413;-64
2022/05/14 07:06:56;;;;;;;0.30;0.28;;;;;;;24.20;64.76;100361.34;4994360;28;20096;-63
2022/05/14 07:09:27;;;;;;;0.85;0.20;;;;;;;24.20;64.25;100361.34;4993877;28;20027;-63
2022/05/14 07:11:58;;;;;;;0.22;0.20;;;;;;;24.19;64.90;100362.41;4994352;28;20030;-63
2022/05/14 07:14:25;;;;;;;0.65;0.40;;;;;;;24.20;64.97;100366.84;4976324;28;20080;-63
2022/05/14 07:16:52;;;;;;;0.20;0.20;;;;;;;24.22;64.58;100372.94;4993789;28;20032;-63
2022/05/14 07:19:17;;;;;;;0.95;0.43;;;;;;;24.21;64.81;100363.03;4976216;28;20058;-63
2022/05/14 07:21:45;;;;;;;0.80;0.40;;;;;;;24.22;64.81;100378.44;4993677;28;20065;-62
2022/05/14 07:24:15;;;;;;;0.30;0.25;;;;;;;24.24;64.82;100376.31;4993775;28;20037;-63
2022/05/14 07:26:41;;;;;;;0.57;0.13;;;;;;;24.24;64.61;100376.31;4993584;28;20085;-63
2022/05/14 07:29:09;;;;;;;0.90;0.30;;;;;;;24.25;65.12;100382.66;4993722;28;20033;-62
2022/05/14 07:31:35;;;;;;;0.47;0.28;;;;;;;24.25;64.97;100379.91;4993435;28;20064;-63
2022/05/14 07:34:01;;;;;;;0.50;0.30;;;;;;;24.24;64.79;100376.31;4993539;28;20030;-63
2022/05/14 07:36:28;;;;;;;0.68;0.20;;;;;;;24.25;65.36;100382.66;4993341;28;20464;-63
2022/05/14 07:38:58;;;;;;;0.30;0.30;;;;;;;24.24;65.35;100384.56;4993504;28;20114;-63
2022/05/14 07:41:25;;;;;;;0.43;0.30;;;;;;;24.25;65.84;100388.97;4993384;28;20367;-63
2022/05/14 07:43:53;;;;;;;0.28;0.20;;;;;;;24.25;65.20;100394.47;4993328;28;20030;-64
2022/05/14 07:46:26;;;;;;;0.50;0.15;;;;;;;24.25;65.13;100394.47;4993370;28;20026;-63
2022/05/14 07:48:51;;;;;;;0.25;0.13;;;;;;;24.26;65.09;100395.31;4993392;28;20018;-62
2022/05/14 07:51:17;;;;;;;0.47;0.20;;;;;;;24.26;65.07;100396.16;4993227;28;20521;-63
2022/05/14 07:53:42;;;;;;;0.82;0.22;;;;;;;24.27;65.18;100397.00;4993089;28;20034;-62
2022/05/14 07:56:09;;;;;;;0.93;0.40;;;;;;;24.26;64.75;100396.16;4993238;28;20022;-63
2022/05/14 07:58:36;;;;;;;0.20;0.20;;;;;;;24.27;65.13;100402.50;4992270;28;20026;-63
2022/05/14 08:01:02;;;;;;;0.25;0.17;;;;;;;24.25;65.90;100402.72;4993626;28;20022;-63
2022/05/14 08:03:27;;;;;;;0.43;0.30;;;;;;;24.25;65.25;100410.13;4993001;28;20029;-63
2022/05/14 08:05:54;;;;;;;0.43;0.20;;;;;;;24.25;65.92;100410.13;4992987;28;20030;-63
2022/05/14 08:08:20;;;;;;;0.73;0.20;;;;;;;24.24;65.59;100414.78;4992963;28;20022;-62
2022/05/14 08:10:45;;;;;;;0.30;0.17;;;;;;;24.23;65.25;100421.31;4993027;28;20052;-63
2022/05/14 08:13:15;;;;;;;0.52;0.32;;;;;;;24.24;65.76;100423.00;4993829;28;20030;-63
2022/05/14 08:15:42;;;;;;;0.75;0.20;;;;;;;24.23;65.39;100424.06;4993058;28;20022;-62
2022/05/14 08:18:07;;;;;;;0.32;0.22;;;;;;;24.25;65.17;100421.94;4993003;28;20034;-63
2022/05/14 08:20:33;;;;;;;0.45;0.20;;;;;;;24.25;65.55;100427.44;4992870;28;20105;-63
2022/05/14 08:25:42;;;;;;;0.30;0.20;;;;;;;24.25;65.48;100421.94;4993130;28;20081;-63
2022/05/14 08:28:08;;;;;;;0.20;0.20;;;;;;;24.25;66.09;100427.44;4975454;28;20050;-63
2022/05/14 08:30:34;;;;;;;0.40;0.20;;;;;;;24.28;65.25;100440.72;4992687;28;20030;-63
2022/05/14 08:33:00;;;;;;;0.10;0.10;;;;;;;24.27;65.01;100446.44;4992864;28;20482;-62
2022/05/14 08:35:27;;;;;;;0.77;0.38;;;;;;;24.26;65.40;100437.34;4992714;28;20397;-63
2022/05/14 08:37:54;;;;;;;0.75;0.28;;;;;;;24.27;65.80;100441.78;4992545;28;20030;-63
2022/05/14 08:40:42;;;;;;;0.32;0.20;;;;;;;24.27;66.16;100452.78;4992938;28;20022;-63
2022/05/14 08:43:15;;;;;;;0.28;0.28;;;;;;;24.27;65.59;100451.94;4975184;28;20026;-63
2022/05/14 08:45:40;;;;;;;0.17;0.10;;;;;;;24.26;65.96;100450.25;4992685;28;20030;-63
2022/05/14 08:48:32;;;;;;;0.63;0.10;;;;;;;24.28;65.64;100462.69;4993460;28;20068;-62
2022/05/14 08:51:08;;;;;;;0.52;0.25;;;;;;;24.28;65.65;100451.72;4992719;28;20031;-62
2022/05/14 08:53:36;;;;;;;0.35;0.20;;;;;;;24.30;65.35;100462.50;4992885;28;20022;-63
2022/05/14 08:56:18;;;;;;;0.30;0.30;;;;;;;24.28;65.16;100470.94;4992941;28;20033;-63
2022/05/14 08:59:02;;;;;;;0.40;0.20;;;;;;;24.27;66.17;100472.00;4992481;28;20106;-63
2022/05/14 09:01:32;;;;;;;0.57;0.25;;;;;;;24.30;65.75;100468.00;4992597;28;20026;-63
2022/05/14 09:03:57;;;;;;;0.80;0.30;;;;;;;24.28;65.80;100465.44;4992540;28;20379;-63
2022/05/14 09:06:23;;;;;;;0.52;0.32;;;;;;;24.32;66.21;100467.78;4992786;28;20032;-62
2022/05/14 09:08:48;;;;;;;0.65;0.20;;;;;;;24.29;65.98;100469.91;4992825;28;20463;-63
2022/05/14 09:11:39;;;;;;;0.10;0.10;;;;;;;24.29;65.50;100467.16;4996250;28;20026;-63
2022/05/14 09:14:17;;;;;;;0.20;0.20;;;;;;;24.29;65.74;100466.31;4988999;28;20080;-64
2022/05/14 09:16:43;;;;;;;0.75;0.20;;;;;;;24.30;65.66;100468.00;4996167;28;20026;-63
2022/05/14 09:19:16;;;;;;;0.20;0.20;;;;;;;24.33;65.54;100464.81;4996086;28;20026;-63
2022/05/14 09:21:57;;;;;;;0.43;0.30;;;;;;;24.29;66.14;100461.66;4996113;28;20030;-62
2022/05/14 09:24:26;;;;;;;0.82;0.40;;;;;;;24.30;65.46;100457.84;4995845;28;20497;-63
2022/05/14 09:26:55;;;;;;;0.68;0.30;;;;;;;24.32;65.83;100460.38;4995888;28;20142;-62
2022/05/14 09:29:33;;;;;;;0.50;0.30;;;;;;;24.33;65.75;100472.22;4995785;28;20453;-62
2022/05/14 09:32:02;;;;;;;0.40;0.30;;;;;;;24.29;66.04;100461.66;4995854;28;20035;-63
2022/05/14 09:34:29;;;;;;;0.95;0.20;;;;;;;24.30;66.11;100463.34;4995863;28;20032;-62
2022/05/14 09:37:00;;;;;;;0.50;0.40;;;;;;;24.32;65.66;100459.53;4995785;28;20030;-63
2022/05/14 09:39:26;;;;;;;0.30;0.20;;;;;;;24.32;65.80;100457.63;4995567;28;20045;-63
2022/05/14 09:41:55;;;;;;;0.35;0.32;;;;;;;24.33;66.09;100462.06;4995593;28;20030;-63
2022/05/14 09:44:25;;;;;;;0.88;0.25;;;;;;;24.33;66.02;100453.81;4995557;28;20022;-63
2022/05/14 09:46:52;;;;;;;0.45;0.30;;;;;;;24.33;66.00;100463.97;4996452;28;20031;-62
2022/05/14 09:49:21;;;;;;;0.30;0.20;;;;;;;24.32;65.97;100467.78;4995467;28;20462;-63
2022/05/14 09:51:51;;;;;;;0.88;0.40;;;;;;;24.33;65.91;100475.78;4995315;28;20034;-64
2022/05/14 09:54:26;;;;;;;0.30;0.10;;;;;;;24.33;66.07;100477.69;4995427;28;20041;-63
2022/05/14 09:57:10;;;;;;;0.73;0.20;;;;;;;24.34;66.21;100476.63;4995417;28;20509;-63
2022/05/14 09:59:46;;;;;;;0.88;0.50;;;;;;;24.34;66.11;100473.91;4995373;28;20026;-64
2022/05/14 10:02:28;;;;;;;0.20;0.10;;;;;;;24.34;66.20;100482.13;4995463;28;20482;-63
2022/05/14 10:05:09;;;;;;;0.35;0.20;;;;;;;24.33;65.65;100483.19;4995367;28;20073;-63
2022/05/14 10:07:46;;;;;;;0.30;0.20;;;;;;;24.33;66.45;100488.69;4995054;28;20022;-63
2022/05/14 10:10:33;;;;;;;0.50;0.28;;;;;;;24.35;65.43;100483.81;4995212;28;20080;-64
2022/05/14 10:13:09;;;;;;;0.32;0.10;;;;;;;24.33;66.01;100477.69;4995709;28;20033;-63
2022/05/14 10:15:46;;;;;;;0.40;0.22;;;;;;;24.36;65.65;100477.28;4994931;28;20038;-63
2022/05/14 10:18:33;;;;;;;1.27;0.30;;;;;;;24.35;66.05;100470.09;4995262;28;20026;-63
2022/05/14 10:21:15;;;;;;;0.22;0.13;;;;;;;24.36;65.77;100477.28;4994381;28;20026;-63
2022/05/14 10:27:03;;;;;;;0.40;0.10;;;;;;;24.35;66.25;100486.56;4953493;29;20561;-63
2022/05/14 10:29:54;;;;;;;0.43;0.20;;;;;;;24.36;65.65;100488.28;4937497;29;20027;-64
2022/05/14 10:32:20;;;;;;;0.10;0.10;;;;;;;24.36;66.00;100494.63;4953550;29;20077;-63
2022/05/14 10:34:59;;;;;;;0.45;0.10;;;;;;;24.35;65.60;100501.13;4953566;29;20070;-63
2022/05/14 10:37:32;;;;;;;0.45;0.20;;;;;;;24.35;66.14;100486.56;4953307;29;20516;-63
2022/05/14 10:40:20;;;;;;;0.17;0.17;;;;;;;24.35;65.58;100492.91;4954074;29;20053;-63
2022/05/14 10:42:59;;;;;;;0.43;0.10;;;;;;;24.35;65.42;100492.06;4953507;29;20035;-63
2022/05/14 10:45:32;;;;;;;0.10;0.10;;;;;;;24.35;65.22;100492.91;4953221;29;20035;-64
2022/05/14 10:48:00;;;;;;;0.77;0.20;;;;;;;24.35;66.23;100497.56;4937252;29;20038;-63
2022/05/14 10:50:28;;;;;;;0.30;0.15;;;;;;;24.36;65.50;100500.09;4953286;29;20035;-61
2022/05/14 10:52:55;;;;;;;0.60;0.28;;;;;;;24.35;66.01;100497.56;4953486;29;20082;-63
2022/05/14 10:55:30;;;;;;;0.20;0.20;;;;;;;24.37;65.70;100500.94;4937801;29;20037;-63
2022/05/14 10:58:00;;;;;;;0.80;0.40;;;;;;;24.37;65.48;100503.69;4953028;29;20044;-63
2022/05/14 11:00:28;;;;;;;0.85;0.30;;;;;;;24.37;65.76;100495.47;4936805;29;20066;-63
2022/05/14 11:03:11;;;;;;;0.30;0.20;;;;;;;24.36;65.92;100502.00;4961002;28;20379;-63
2022/05/14 11:06:04;;;;;;;0.20;0.20;;;;;;;24.37;65.36;100500.94;4993947;28;20030;-62
2022/05/14 11:08:41;;;;;;;1.25;0.32;;;;;;;24.37;66.39;100506.44;4994222;28;20025;-63
2022/05/14 11:11:23;;;;;;;0.20;0.20;;;;;;;24.36;65.70;100505.59;4994282;28;20073;-63
2022/05/14 11:14:07;;;;;;;0.15;0.10;;;;;;;24.37;65.76;100512.78;4993789;28;20504;-63
2022/05/14 11:16:50;;;;;;;0.52;0.30;;;;;;;24.37;65.68;100511.94;4993859;28;20413;-64
2022/05/14 11:19:31;;;;;;;0.13;0.10;;;;;;;24.38;65.71;100503.47;4993770;28;20062;-63
2022/05/14 11:21:58;;;;;;;0.28;0.15;;;;;;;24.38;66.27;100508.13;4993772;28;20030;-63
2022/05/14 11:24:41;;;;;;;0.57;0.40;;;;;;;24.38;66.23;100508.97;4994248;28;20061;-63
2022/05/14 11:27:08;;;;;;;0.33;0.23;;;;;;;24.36;65.35;100499.28;4993794;28;20045;-64
2022/05/14 11:29:47;;;;;;;2.10;0.30;;;;;;;24.37;65.22;100503.69;4993485;28;20029;-63
2022/05/14 11:32:16;;;;;;;0.38;0.22;;;;;;;24.38;65.70;100499.88;4994170;28;20030;-62
2022/05/14 11:34:53;;;;;;;0.70;0.32;;;;;;;24.36;65.92;100508.34;4994207;28;20022;-63
2022/05/14 11:37:33;;;;;;;1.55;0.38;;;;;;;24.37;65.98;100523.78;4993391;28;20026;-63
2022/05/14 11:40:22;;;;;;;0.43;0.20;;;;;;;24.37;65.53;100520.19;4993502;28;20034;-64
2022/05/14 11:42:53;;;;;;;0.32;0.20;;;;;;;24.36;65.68;100527.59;4969416;28;20081;-62
2022/05/14 11:45:28;;;;;;;0.30;0.20;;;;;;;24.37;65.49;100533.91;4993304;28;20026;-64
2022/05/14 11:48:05;;;;;;;0.55;0.30;;;;;;;24.38;65.26;100541.09;4993222;28;20053;-64
2022/05/14 11:50:41;;;;;;;0.20;0.20;;;;;;;24.39;66.09;100537.28;4975764;28;20050;-62